Terminal Aerodrome Forecast
Issued by NWS Albany, NY

Home | Current Version | Previous Version | Text Only | Print | Product List | Glossary On
Versions: 1 2 3 4 5 6 7 8 9 10 11 12 13 14 15 16 17 18 19 20 21 22 23 24 25 26 27 28
122
FTUS41 KALY 060535
TAFPOU
TAF
KPOU 060535Z 0606/0706 02007KT P6SM OVC035
     FM061200 35007KT 4SM -RA OVC025
     FM061800 06006KT 5SM -RA BR OVC020
     FM070300 08004KT P6SM VCSH OVC015=

USA.gov is the U.S. government's official web portal to all federal, state and local government web resources and services.